Bogorodskoe, Russia
Current Conditions -  °F | °C
As of 3:30 AM on Tuesday 23 Dec 2014 (Local Time) from UHHH Reporting Station
Clear Clear  
Wind Chill: -29°   Ceiling: Unl
Heat Index: -9°   Visibility: 6mi
Dew Point: -20°   Wind: 11mph
Humidity: 59%   Direction: 210°SSW
Pressure: 29.83"   Gusts: 18mph
Location:  52.38°N, 140.47°E
Report Text: UHHH 221730Z 21005G08MPS CAVOK M23/M29 Q1010 NOSIG RMKQFE751/1001 23090060
Loading
Personal Weather Stations






























Interactive Weather Map New forecast layout! Learn more

10-Day Weather Forecast

Advertisements
Track Severe Weather on mobile